sensor_id;sensor_type;location;lat;lon;timestamp;P1;durP1;ratioP1;P2;durP2;ratioP2
25990;SDS011;13779;-33.886;151.198;2022-12-07T00:02:00;14.63;;;3.70;;
25990;SDS011;13779;-33.886;151.198;2022-12-07T00:04:30;20.42;;;6.68;;
25990;SDS011;13779;-33.886;151.198;2022-12-07T00:07:00;19.33;;;5.25;;
25990;SDS011;13779;-33.886;151.198;2022-12-07T00:09:31;21.45;;;5.18;;
25990;SDS011;13779;-33.886;151.198;2022-12-07T00:12:01;17.02;;;4.20;;
25990;SDS011;13779;-33.886;151.198;2022-12-07T00:14:31;19.30;;;4.78;;
25990;SDS011;13779;-33.886;151.198;2022-12-07T00:17:01;17.92;;;4.57;;
25990;SDS011;13779;-33.886;151.198;2022-12-07T00:19:31;21.88;;;4.97;;
25990;SDS011;13779;-33.886;151.198;2022-12-07T00:22:01;19.38;;;4.72;;
25990;SDS011;13779;-33.886;151.198;2022-12-07T00:24:32;15.80;;;4.22;;
25990;SDS011;13779;-33.886;151.198;2022-12-07T00:27:02;16.80;;;4.75;;
25990;SDS011;13779;-33.886;151.198;2022-12-07T00:29:32;20.10;;;3.93;;
25990;SDS011;13779;-33.886;151.198;2022-12-07T00:32:02;20.63;;;5.07;;
25990;SDS011;13779;-33.886;151.198;2022-12-07T00:34:33;14.10;;;4.13;;
25990;SDS011;13779;-33.886;151.198;2022-12-07T00:39:34;19.70;;;4.50;;
25990;SDS011;13779;-33.886;151.198;2022-12-07T00:42:04;19.98;;;4.88;;
25990;SDS011;13779;-33.886;151.198;2022-12-07T00:44:34;28.00;;;6.82;;
25990;SDS011;13779;-33.886;151.198;2022-12-07T00:47:06;18.55;;;5.20;;
25990;SDS011;13779;-33.886;151.198;2022-12-07T00:49:36;15.27;;;4.50;;
25990;SDS011;13779;-33.886;151.198;2022-12-07T00:52:06;15.63;;;4.03;;
25990;SDS011;13779;-33.886;151.198;2022-12-07T00:54:36;21.52;;;4.28;;
25990;SDS011;13779;-33.886;151.198;2022-12-07T00:57:06;14.15;;;4.28;;
25990;SDS011;13779;-33.886;151.198;2022-12-07T00:59:36;15.93;;;4.32;;
25990;SDS011;13779;-33.886;151.198;2022-12-07T01:02:06;14.60;;;3.83;;
25990;SDS011;13779;-33.886;151.198;2022-12-07T01:04:37;14.23;;;4.75;;
25990;SDS011;13779;-33.886;151.198;2022-12-07T01:07:07;20.17;;;4.85;;
25990;SDS011;13779;-33.886;151.198;2022-12-07T01:09:37;17.92;;;4.75;;
25990;SDS011;13779;-33.886;151.198;2022-12-07T01:12:07;21.50;;;5.18;;
25990;SDS011;13779;-33.886;151.198;2022-12-07T01:14:37;18.70;;;4.35;;
25990;SDS011;13779;-33.886;151.198;2022-12-07T01:17:07;25.63;;;5.57;;
25990;SDS011;13779;-33.886;151.198;2022-12-07T01:19:37;15.82;;;4.40;;
25990;SDS011;13779;-33.886;151.198;2022-12-07T01:22:07;19.90;;;5.10;;
25990;SDS011;13779;-33.886;151.198;2022-12-07T01:24:38;17.80;;;5.22;;
25990;SDS011;13779;-33.886;151.198;2022-12-07T01:27:08;12.77;;;5.05;;
25990;SDS011;13779;-33.886;151.198;2022-12-07T01:29:39;17.05;;;5.05;;
25990;SDS011;13779;-33.886;151.198;2022-12-07T01:32:09;17.50;;;5.55;;
25990;SDS011;13779;-33.886;151.198;2022-12-07T01:34:39;17.63;;;5.10;;
25990;SDS011;13779;-33.886;151.198;2022-12-07T01:37:09;23.52;;;7.70;;
25990;SDS011;13779;-33.886;151.198;2022-12-07T01:39:39;15.55;;;5.72;;
25990;SDS011;13779;-33.886;151.198;2022-12-07T01:42:10;15.75;;;4.90;;
25990;SDS011;13779;-33.886;151.198;2022-12-07T01:47:51;11.85;;;3.83;;
25990;SDS011;13779;-33.886;151.198;2022-12-07T01:50:25;18.65;;;5.93;;
25990;SDS011;13779;-33.886;151.198;2022-12-07T01:53:01;18.40;;;4.60;;
25990;SDS011;13779;-33.886;151.198;2022-12-07T01:55:35;14.13;;;4.53;;
25990;SDS011;13779;-33.886;151.198;2022-12-07T01:58:09;11.07;;;4.05;;
25990;SDS011;13779;-33.886;151.198;2022-12-07T02:00:41;14.65;;;4.72;;
25990;SDS011;13779;-33.886;151.198;2022-12-07T02:03:22;15.23;;;4.50;;
25990;SDS011;13779;-33.886;151.198;2022-12-07T02:06:01;14.98;;;5.15;;
25990;SDS011;13779;-33.886;151.198;2022-12-07T02:08:31;19.80;;;8.03;;
25990;SDS011;13779;-33.886;151.198;2022-12-07T02:11:02;16.80;;;6.13;;
25990;SDS011;13779;-33.886;151.198;2022-12-07T02:13:35;16.70;;;6.05;;
25990;SDS011;13779;-33.886;151.198;2022-12-07T02:35:25;17.17;;;5.18;;
25990;SDS011;13779;-33.886;151.198;2022-12-07T02:43:34;16.25;;;4.82;;
25990;SDS011;13779;-33.886;151.198;2022-12-07T02:46:11;18.13;;;4.78;;
25990;SDS011;13779;-33.886;151.198;2022-12-07T02:48:45;19.38;;;4.38;;
25990;SDS011;13779;-33.886;151.198;2022-12-07T02:51:17;12.60;;;4.10;;
25990;SDS011;13779;-33.886;151.198;2022-12-07T02:53:48;17.88;;;5.47;;
25990;SDS011;13779;-33.886;151.198;2022-12-07T03:08:07;18.52;;;4.85;;
25990;SDS011;13779;-33.886;151.198;2022-12-07T03:11:04;13.15;;;5.50;;
25990;SDS011;13779;-33.886;151.198;2022-12-07T03:18:54;14.60;;;4.53;;
25990;SDS011;13779;-33.886;151.198;2022-12-07T03:21:36;17.60;;;4.38;;
25990;SDS011;13779;-33.886;151.198;2022-12-07T03:24:17;17.98;;;4.57;;
25990;SDS011;13779;-33.886;151.198;2022-12-07T03:27:34;17.25;;;5.43;;
25990;SDS011;13779;-33.886;151.198;2022-12-07T03:32:56;16.77;;;4.65;;
25990;SDS011;13779;-33.886;151.198;2022-12-07T03:35:38;12.05;;;4.72;;
25990;SDS011;13779;-33.886;151.198;2022-12-07T03:38:29;17.90;;;5.80;;
25990;SDS011;13779;-33.886;151.198;2022-12-07T03:41:23;13.98;;;4.47;;
25990;SDS011;13779;-33.886;151.198;2022-12-07T03:43:56;18.75;;;5.18;;
25990;SDS011;13779;-33.886;151.198;2022-12-07T03:46:32;13.15;;;4.57;;
25990;SDS011;13779;-33.886;151.198;2022-12-07T03:52:24;30.52;;;7.75;;
25990;SDS011;13779;-33.886;151.198;2022-12-07T03:55:06;18.50;;;5.10;;
25990;SDS011;13779;-33.886;151.198;2022-12-07T03:57:57;11.15;;;4.30;;
25990;SDS011;13779;-33.886;151.198;2022-12-07T04:00:37;13.30;;;4.07;;
25990;SDS011;13779;-33.886;151.198;2022-12-07T04:03:07;15.00;;;5.28;;
25990;SDS011;13779;-33.886;151.198;2022-12-07T04:05:38;16.95;;;5.20;;
25990;SDS011;13779;-33.886;151.198;2022-12-07T04:08:09;14.60;;;5.03;;
25990;SDS011;13779;-33.886;151.198;2022-12-07T04:10:40;21.45;;;5.35;;
25990;SDS011;13779;-33.886;151.198;2022-12-07T04:13:11;10.02;;;4.43;;
25990;SDS011;13779;-33.886;151.198;2022-12-07T04:15:41;21.38;;;5.10;;
25990;SDS011;13779;-33.886;151.198;2022-12-07T04:18:12;17.02;;;5.45;;
25990;SDS011;13779;-33.886;151.198;2022-12-07T04:20:42;17.98;;;5.47;;
25990;SDS011;13779;-33.886;151.198;2022-12-07T04:23:15;13.80;;;4.70;;
25990;SDS011;13779;-33.886;151.198;2022-12-07T04:25:48;16.67;;;5.57;;
25990;SDS011;13779;-33.886;151.198;2022-12-07T04:28:18;16.05;;;4.88;;
25990;SDS011;13779;-33.886;151.198;2022-12-07T04:30:48;13.32;;;4.85;;
25990;SDS011;13779;-33.886;151.198;2022-12-07T04:33:19;14.00;;;4.55;;
25990;SDS011;13779;-33.886;151.198;2022-12-07T04:35:49;18.45;;;5.47;;
25990;SDS011;13779;-33.886;151.198;2022-12-07T04:38:20;16.13;;;5.60;;
25990;SDS011;13779;-33.886;151.198;2022-12-07T04:40:50;18.52;;;5.88;;
25990;SDS011;13779;-33.886;151.198;2022-12-07T04:43:21;15.57;;;4.13;;
25990;SDS011;13779;-33.886;151.198;2022-12-07T04:45:52;10.75;;;3.67;;
25990;SDS011;13779;-33.886;151.198;2022-12-07T04:48:22;19.52;;;3.53;;
25990;SDS011;13779;-33.886;151.198;2022-12-07T04:50:54;7.13;;;2.72;;
25990;SDS011;13779;-33.886;151.198;2022-12-07T04:53:25;4.82;;;1.65;;
25990;SDS011;13779;-33.886;151.198;2022-12-07T04:55:56;5.35;;;2.17;;
25990;SDS011;13779;-33.886;151.198;2022-12-07T04:58:30;4.38;;;1.23;;
25990;SDS011;13779;-33.886;151.198;2022-12-07T05:01:00;3.17;;;1.38;;
25990;SDS011;13779;-33.886;151.198;2022-12-07T05:03:31;3.13;;;1.20;;
25990;SDS011;13779;-33.886;151.198;2022-12-07T05:06:01;2.38;;;0.85;;
25990;SDS011;13779;-33.886;151.198;2022-12-07T05:08:37;3.47;;;1.02;;
25990;SDS011;13779;-33.886;151.198;2022-12-07T05:11:08;5.30;;;1.20;;
25990;SDS011;13779;-33.886;151.198;2022-12-07T05:13:59;3.63;;;1.20;;
25990;SDS011;13779;-33.886;151.198;2022-12-07T05:16:31;1.48;;;0.60;;
25990;SDS011;13779;-33.886;151.198;2022-12-07T05:19:02;1.77;;;0.70;;
25990;SDS011;13779;-33.886;151.198;2022-12-07T05:21:36;3.88;;;0.70;;
25990;SDS011;13779;-33.886;151.198;2022-12-07T05:24:10;1.70;;;0.70;;
25990;SDS011;13779;-33.886;151.198;2022-12-07T05:26:42;2.90;;;1.10;;
25990;SDS011;13779;-33.886;151.198;2022-12-07T05:29:13;1.35;;;0.85;;
25990;SDS011;13779;-33.886;151.198;2022-12-07T05:31:45;1.45;;;0.70;;
25990;SDS011;13779;-33.886;151.198;2022-12-07T05:34:16;3.88;;;0.88;;
25990;SDS011;13779;-33.886;151.198;2022-12-07T05:36:47;5.68;;;1.35;;
25990;SDS011;13779;-33.886;151.198;2022-12-07T05:39:18;5.93;;;1.23;;
25990;SDS011;13779;-33.886;151.198;2022-12-07T05:41:49;3.42;;;0.80;;
25990;SDS011;13779;-33.886;151.198;2022-12-07T05:44:41;1.55;;;0.75;;
25990;SDS011;13779;-33.886;151.198;2022-12-07T05:47:14;4.80;;;0.85;;
25990;SDS011;13779;-33.886;151.198;2022-12-07T05:49:45;3.15;;;0.95;;
25990;SDS011;13779;-33.886;151.198;2022-12-07T05:52:15;3.10;;;0.90;;
25990;SDS011;13779;-33.886;151.198;2022-12-07T05:54:46;4.28;;;1.08;;
25990;SDS011;13779;-33.886;151.198;2022-12-07T05:57:16;3.83;;;0.90;;
25990;SDS011;13779;-33.886;151.198;2022-12-07T05:59:47;2.17;;;1.10;;
25990;SDS011;13779;-33.886;151.198;2022-12-07T06:02:18;4.07;;;1.55;;
25990;SDS011;13779;-33.886;151.198;2022-12-07T06:04:49;2.90;;;1.20;;
25990;SDS011;13779;-33.886;151.198;2022-12-07T06:07:20;4.65;;;1.67;;
25990;SDS011;13779;-33.886;151.198;2022-12-07T06:09:50;4.20;;;1.42;;
25990;SDS011;13779;-33.886;151.198;2022-12-07T06:12:21;4.32;;;1.45;;
25990;SDS011;13779;-33.886;151.198;2022-12-07T06:15:03;2.95;;;1.50;;
25990;SDS011;13779;-33.886;151.198;2022-12-07T06:17:34;3.33;;;1.70;;
25990;SDS011;13779;-33.886;151.198;2022-12-07T06:20:05;7.68;;;1.63;;
25990;SDS011;13779;-33.886;151.198;2022-12-07T06:22:36;8.52;;;1.67;;
25990;SDS011;13779;-33.886;151.198;2022-12-07T06:25:07;9.83;;;1.80;;
25990;SDS011;13779;-33.886;151.198;2022-12-07T06:27:38;7.60;;;1.90;;
25990;SDS011;13779;-33.886;151.198;2022-12-07T06:30:08;11.85;;;2.00;;
25990;SDS011;13779;-33.886;151.198;2022-12-07T06:32:39;5.23;;;1.70;;
25990;SDS011;13779;-33.886;151.198;2022-12-07T06:35:09;5.50;;;1.45;;
25990;SDS011;13779;-33.886;151.198;2022-12-07T06:37:39;5.25;;;1.00;;
25990;SDS011;13779;-33.886;151.198;2022-12-07T06:40:09;4.72;;;1.30;;
25990;SDS011;13779;-33.886;151.198;2022-12-07T06:42:39;3.70;;;1.00;;
25990;SDS011;13779;-33.886;151.198;2022-12-07T06:45:10;3.93;;;1.17;;
25990;SDS011;13779;-33.886;151.198;2022-12-07T06:47:40;4.67;;;1.20;;
25990;SDS011;13779;-33.886;151.198;2022-12-07T06:52:40;6.30;;;2.28;;
25990;SDS011;13779;-33.886;151.198;2022-12-07T06:55:11;7.38;;;2.17;;
25990;SDS011;13779;-33.886;151.198;2022-12-07T06:57:41;5.72;;;1.98;;
25990;SDS011;13779;-33.886;151.198;2022-12-07T07:00:12;4.07;;;1.40;;
25990;SDS011;13779;-33.886;151.198;2022-12-07T07:02:47;1.77;;;1.00;;
25990;SDS011;13779;-33.886;151.198;2022-12-07T07:05:17;4.10;;;1.40;;
25990;SDS011;13779;-33.886;151.198;2022-12-07T07:07:50;5.38;;;1.27;;
25990;SDS011;13779;-33.886;151.198;2022-12-07T07:10:40;3.25;;;1.80;;
25990;SDS011;13779;-33.886;151.198;2022-12-07T07:13:11;3.95;;;1.17;;
25990;SDS011;13779;-33.886;151.198;2022-12-07T07:15:42;4.70;;;1.67;;
25990;SDS011;13779;-33.886;151.198;2022-12-07T07:18:12;6.07;;;1.35;;
25990;SDS011;13779;-33.886;151.198;2022-12-07T07:20:42;4.30;;;1.20;;
25990;SDS011;13779;-33.886;151.198;2022-12-07T07:23:12;2.75;;;1.35;;
25990;SDS011;13779;-33.886;151.198;2022-12-07T07:25:42;1.83;;;1.00;;
25990;SDS011;13779;-33.886;151.198;2022-12-07T07:28:14;4.90;;;1.55;;
25990;SDS011;13779;-33.886;151.198;2022-12-07T07:30:44;2.55;;;1.50;;
25990;SDS011;13779;-33.886;151.198;2022-12-07T07:33:14;3.50;;;1.90;;
25990;SDS011;13779;-33.886;151.198;2022-12-07T07:35:45;8.02;;;2.17;;
25990;SDS011;13779;-33.886;151.198;2022-12-07T07:38:15;3.58;;;2.05;;
25990;SDS011;13779;-33.886;151.198;2022-12-07T07:40:45;4.78;;;1.90;;
25990;SDS011;13779;-33.886;151.198;2022-12-07T07:43:15;5.85;;;2.03;;
25990;SDS011;13779;-33.886;151.198;2022-12-07T07:45:45;9.07;;;2.67;;
25990;SDS011;13779;-33.886;151.198;2022-12-07T07:48:18;5.38;;;2.22;;
25990;SDS011;13779;-33.886;151.198;2022-12-07T07:50:48;8.20;;;2.95;;
25990;SDS011;13779;-33.886;151.198;2022-12-07T07:53:18;4.32;;;2.40;;
25990;SDS011;13779;-33.886;151.198;2022-12-07T07:55:55;5.22;;;1.92;;
25990;SDS011;13779;-33.886;151.198;2022-12-07T07:58:25;5.07;;;1.73;;
25990;SDS011;13779;-33.886;151.198;2022-12-07T08:00:56;5.03;;;1.80;;
25990;SDS011;13779;-33.886;151.198;2022-12-07T08:03:26;5.83;;;1.93;;
25990;SDS011;13779;-33.886;151.198;2022-12-07T08:05:56;2.42;;;1.40;;
25990;SDS011;13779;-33.886;151.198;2022-12-07T08:08:26;5.32;;;2.25;;
25990;SDS011;13779;-33.886;151.198;2022-12-07T08:10:57;4.00;;;1.67;;
25990;SDS011;13779;-33.886;151.198;2022-12-07T08:13:29;3.45;;;1.30;;
25990;SDS011;13779;-33.886;151.198;2022-12-07T08:16:03;5.33;;;1.10;;
25990;SDS011;13779;-33.886;151.198;2022-12-07T08:18:35;3.15;;;1.75;;
25990;SDS011;13779;-33.886;151.198;2022-12-07T08:21:06;5.10;;;1.55;;
25990;SDS011;13779;-33.886;151.198;2022-12-07T08:23:40;2.47;;;1.58;;
25990;SDS011;13779;-33.886;151.198;2022-12-07T08:26:12;3.08;;;1.70;;
25990;SDS011;13779;-33.886;151.198;2022-12-07T08:28:44;4.30;;;1.85;;
25990;SDS011;13779;-33.886;151.198;2022-12-07T08:31:16;3.63;;;1.40;;
25990;SDS011;13779;-33.886;151.198;2022-12-07T08:33:47;3.00;;;1.65;;
25990;SDS011;13779;-33.886;151.198;2022-12-07T08:36:18;7.43;;;1.83;;
25990;SDS011;13779;-33.886;151.198;2022-12-07T08:38:48;2.10;;;1.30;;
25990;SDS011;13779;-33.886;151.198;2022-12-07T08:41:39;8.07;;;2.05;;
25990;SDS011;13779;-33.886;151.198;2022-12-07T08:44:09;2.78;;;1.55;;
25990;SDS011;13779;-33.886;151.198;2022-12-07T08:46:53;5.43;;;1.55;;
25990;SDS011;13779;-33.886;151.198;2022-12-07T08:49:30;2.17;;;1.45;;
25990;SDS011;13779;-33.886;151.198;2022-12-07T08:52:09;5.75;;;1.58;;
25990;SDS011;13779;-33.886;151.198;2022-12-07T08:54:40;4.88;;;1.60;;
25990;SDS011;13779;-33.886;151.198;2022-12-07T08:57:11;6.85;;;1.35;;
25990;SDS011;13779;-33.886;151.198;2022-12-07T08:59:41;2.13;;;1.43;;
25990;SDS011;13779;-33.886;151.198;2022-12-07T09:02:12;3.10;;;1.65;;
25990;SDS011;13779;-33.886;151.198;2022-12-07T09:04:42;5.53;;;2.10;;
25990;SDS011;13779;-33.886;151.198;2022-12-07T09:07:12;2.50;;;1.30;;
25990;SDS011;13779;-33.886;151.198;2022-12-07T09:09:45;2.95;;;1.38;;
25990;SDS011;13779;-33.886;151.198;2022-12-07T09:12:16;2.40;;;0.90;;
25990;SDS011;13779;-33.886;151.198;2022-12-07T09:14:46;2.38;;;1.23;;
25990;SDS011;13779;-33.886;151.198;2022-12-07T09:17:20;4.15;;;1.60;;
25990;SDS011;13779;-33.886;151.198;2022-12-07T09:19:51;1.73;;;1.33;;
25990;SDS011;13779;-33.886;151.198;2022-12-07T09:24:51;5.80;;;1.92;;
25990;SDS011;13779;-33.886;151.198;2022-12-07T09:27:22;6.00;;;1.50;;
25990;SDS011;13779;-33.886;151.198;2022-12-07T09:29:53;2.95;;;1.48;;
25990;SDS011;13779;-33.886;151.198;2022-12-07T09:32:23;4.90;;;1.70;;
25990;SDS011;13779;-33.886;151.198;2022-12-07T09:34:54;5.05;;;2.35;;
25990;SDS011;13779;-33.886;151.198;2022-12-07T09:37:27;4.45;;;2.00;;
25990;SDS011;13779;-33.886;151.198;2022-12-07T09:39:57;3.83;;;1.60;;
25990;SDS011;13779;-33.886;151.198;2022-12-07T09:42:29;3.47;;;1.40;;
25990;SDS011;13779;-33.886;151.198;2022-12-07T09:45:22;3.85;;;1.80;;
25990;SDS011;13779;-33.886;151.198;2022-12-07T09:47:56;8.20;;;3.30;;
25990;SDS011;13779;-33.886;151.198;2022-12-07T09:50:28;3.10;;;1.80;;
25990;SDS011;13779;-33.886;151.198;2022-12-07T09:53:09;4.25;;;1.50;;
25990;SDS011;13779;-33.886;151.198;2022-12-07T09:55:45;3.00;;;1.80;;
25990;SDS011;13779;-33.886;151.198;2022-12-07T09:58:20;3.60;;;1.77;;
25990;SDS011;13779;-33.886;151.198;2022-12-07T10:01:46;8.40;;;2.42;;
25990;SDS011;13779;-33.886;151.198;2022-12-07T10:03:55;6.65;;;2.08;;
25990;SDS011;13779;-33.886;151.198;2022-12-07T10:06:49;5.82;;;2.10;;
25990;SDS011;13779;-33.886;151.198;2022-12-07T10:09:20;2.85;;;1.50;;
25990;SDS011;13779;-33.886;151.198;2022-12-07T10:14:33;5.93;;;1.70;;
25990;SDS011;13779;-33.886;151.198;2022-12-07T10:17:34;3.72;;;1.30;;
25990;SDS011;13779;-33.886;151.198;2022-12-07T10:22:59;2.60;;;1.50;;
25990;SDS011;13779;-33.886;151.198;2022-12-07T10:25:34;2.47;;;1.48;;
25990;SDS011;13779;-33.886;151.198;2022-12-07T10:28:16;3.40;;;1.63;;
25990;SDS011;13779;-33.886;151.198;2022-12-07T10:30:56;3.97;;;1.45;;
25990;SDS011;13779;-33.886;151.198;2022-12-07T10:33:37;2.47;;;1.50;;
25990;SDS011;13779;-33.886;151.198;2022-12-07T10:39:16;5.60;;;2.10;;
25990;SDS011;13779;-33.886;151.198;2022-12-07T10:41:58;6.80;;;2.17;;
25990;SDS011;13779;-33.886;151.198;2022-12-07T10:44:35;4.80;;;2.20;;
25990;SDS011;13779;-33.886;151.198;2022-12-07T11:01:26;4.93;;;1.33;;
25990;SDS011;13779;-33.886;151.198;2022-12-07T11:07:14;5.60;;;1.30;;
25990;SDS011;13779;-33.886;151.198;2022-12-07T11:10:11;3.47;;;1.00;;
25990;SDS011;13779;-33.886;151.198;2022-12-07T11:26:41;2.38;;;1.00;;
25990;SDS011;13779;-33.886;151.198;2022-12-07T11:32:29;3.63;;;0.93;;
25990;SDS011;13779;-33.886;151.198;2022-12-07T11:38:12;3.75;;;1.10;;
25990;SDS011;13779;-33.886;151.198;2022-12-07T11:40:50;2.55;;;0.90;;
25990;SDS011;13779;-33.886;151.198;2022-12-07T11:43:29;2.35;;;0.90;;
25990;SDS011;13779;-33.886;151.198;2022-12-07T11:46:05;3.95;;;1.30;;
25990;SDS011;13779;-33.886;151.198;2022-12-07T11:51:37;5.22;;;1.15;;
25990;SDS011;13779;-33.886;151.198;2022-12-07T11:54:15;1.33;;;0.90;;
25990;SDS011;13779;-33.886;151.198;2022-12-07T11:56:50;1.17;;;0.90;;
25990;SDS011;13779;-33.886;151.198;2022-12-07T11:59:31;4.78;;;1.00;;
25990;SDS011;13779;-33.886;151.198;2022-12-07T12:02:27;2.00;;;0.90;;
25990;SDS011;13779;-33.886;151.198;2022-12-07T12:05:24;2.08;;;0.90;;
25990;SDS011;13779;-33.886;151.198;2022-12-07T12:22:37;3.80;;;0.88;;
25990;SDS011;13779;-33.886;151.198;2022-12-07T12:25:18;2.05;;;1.08;;
25990;SDS011;13779;-33.886;151.198;2022-12-07T12:27:59;2.95;;;1.02;;
25990;SDS011;13779;-33.886;151.198;2022-12-07T12:30:39;2.63;;;1.00;;
25990;SDS011;13779;-33.886;151.198;2022-12-07T12:33:14;1.58;;;0.70;;
25990;SDS011;13779;-33.886;151.198;2022-12-07T12:47:01;2.33;;;0.90;;
25990;SDS011;13779;-33.886;151.198;2022-12-07T12:49:34;1.40;;;0.82;;
25990;SDS011;13779;-33.886;151.198;2022-12-07T12:55:12;2.75;;;1.10;;
25990;SDS011;13779;-33.886;151.198;2022-12-07T12:58:22;3.20;;;1.08;;
25990;SDS011;13779;-33.886;151.198;2022-12-07T13:07:03;4.88;;;1.60;;
25990;SDS011;13779;-33.886;151.198;2022-12-07T13:09:41;2.42;;;1.17;;
25990;SDS011;13779;-33.886;151.198;2022-12-07T13:12:14;5.75;;;2.03;;
25990;SDS011;13779;-33.886;151.198;2022-12-07T13:14:52;2.65;;;1.55;;
25990;SDS011;13779;-33.886;151.198;2022-12-07T13:20:04;6.85;;;1.17;;
25990;SDS011;13779;-33.886;151.198;2022-12-07T13:22:43;3.25;;;1.20;;
25990;SDS011;13779;-33.886;151.198;2022-12-07T13:25:22;1.85;;;0.95;;
25990;SDS011;13779;-33.886;151.198;2022-12-07T13:31:13;3.90;;;0.82;;
25990;SDS011;13779;-33.886;151.198;2022-12-07T13:34:32;2.67;;;1.10;;
25990;SDS011;13779;-33.886;151.198;2022-12-07T13:37:10;1.67;;;1.00;;
25990;SDS011;13779;-33.886;151.198;2022-12-07T13:40:20;2.17;;;1.00;;
25990;SDS011;13779;-33.886;151.198;2022-12-07T13:43:12;5.20;;;1.05;;
25990;SDS011;13779;-33.886;151.198;2022-12-07T13:45:46;2.83;;;1.27;;
25990;SDS011;13779;-33.886;151.198;2022-12-07T13:48:34;5.78;;;1.88;;
25990;SDS011;13779;-33.886;151.198;2022-12-07T13:51:34;4.75;;;1.33;;
25990;SDS011;13779;-33.886;151.198;2022-12-07T13:54:12;1.83;;;1.20;;
25990;SDS011;13779;-33.886;151.198;2022-12-07T13:56:43;2.38;;;0.95;;
25990;SDS011;13779;-33.886;151.198;2022-12-07T13:59:22;4.90;;;1.65;;
25990;SDS011;13779;-33.886;151.198;2022-12-07T14:01:55;5.43;;;1.40;;
25990;SDS011;13779;-33.886;151.198;2022-12-07T14:04:33;2.47;;;1.20;;
25990;SDS011;13779;-33.886;151.198;2022-12-07T14:09:58;2.78;;;1.00;;
25990;SDS011;13779;-33.886;151.198;2022-12-07T14:12:31;1.50;;;0.90;;
25990;SDS011;13779;-33.886;151.198;2022-12-07T14:15:04;8.88;;;1.10;;
25990;SDS011;13779;-33.886;151.198;2022-12-07T14:17:52;2.67;;;0.90;;
25990;SDS011;13779;-33.886;151.198;2022-12-07T14:20:31;1.48;;;0.77;;
25990;SDS011;13779;-33.886;151.198;2022-12-07T14:23:19;3.90;;;1.00;;
25990;SDS011;13779;-33.886;151.198;2022-12-07T14:26:03;1.95;;;1.13;;
25990;SDS011;13779;-33.886;151.198;2022-12-07T14:28:37;4.25;;;1.10;;
25990;SDS011;13779;-33.886;151.198;2022-12-07T14:31:15;3.80;;;1.30;;
25990;SDS011;13779;-33.886;151.198;2022-12-07T14:33:58;2.28;;;0.90;;
25990;SDS011;13779;-33.886;151.198;2022-12-07T14:36:29;1.20;;;0.80;;
25990;SDS011;13779;-33.886;151.198;2022-12-07T14:38:59;1.73;;;0.77;;
25990;SDS011;13779;-33.886;151.198;2022-12-07T14:41:33;1.05;;;0.90;;
25990;SDS011;13779;-33.886;151.198;2022-12-07T14:44:20;2.53;;;0.80;;
25990;SDS011;13779;-33.886;151.198;2022-12-07T14:46:58;3.63;;;1.10;;
25990;SDS011;13779;-33.886;151.198;2022-12-07T14:49:48;2.30;;;1.10;;
25990;SDS011;13779;-33.886;151.198;2022-12-07T14:52:26;2.27;;;1.07;;
25990;SDS011;13779;-33.886;151.198;2022-12-07T14:55:28;1.60;;;0.80;;
25990;SDS011;13779;-33.886;151.198;2022-12-07T14:58:14;3.05;;;1.00;;
25990;SDS011;13779;-33.886;151.198;2022-12-07T15:00:46;3.13;;;1.30;;
25990;SDS011;13779;-33.886;151.198;2022-12-07T15:03:16;3.43;;;2.10;;
25990;SDS011;13779;-33.886;151.198;2022-12-07T15:05:47;4.30;;;2.80;;
25990;SDS011;13779;-33.886;151.198;2022-12-07T15:08:18;4.03;;;1.90;;
25990;SDS011;13779;-33.886;151.198;2022-12-07T15:10:49;4.63;;;1.58;;
25990;SDS011;13779;-33.886;151.198;2022-12-07T15:13:19;2.30;;;1.20;;
25990;SDS011;13779;-33.886;151.198;2022-12-07T15:16:09;2.78;;;1.05;;
25990;SDS011;13779;-33.886;151.198;2022-12-07T15:18:42;1.88;;;1.00;;
25990;SDS011;13779;-33.886;151.198;2022-12-07T15:21:33;1.65;;;0.88;;
25990;SDS011;13779;-33.886;151.198;2022-12-07T15:24:07;3.38;;;1.38;;
25990;SDS011;13779;-33.886;151.198;2022-12-07T15:26:39;2.35;;;1.00;;
25990;SDS011;13779;-33.886;151.198;2022-12-07T15:29:10;2.22;;;1.20;;
25990;SDS011;13779;-33.886;151.198;2022-12-07T15:31:49;2.03;;;1.10;;
25990;SDS011;13779;-33.886;151.198;2022-12-07T15:34:24;3.10;;;1.05;;
25990;SDS011;13779;-33.886;151.198;2022-12-07T15:39:35;1.63;;;0.80;;
25990;SDS011;13779;-33.886;151.198;2022-12-07T15:42:06;5.75;;;1.15;;
25990;SDS011;13779;-33.886;151.198;2022-12-07T15:44:37;4.45;;;1.10;;
25990;SDS011;13779;-33.886;151.198;2022-12-07T15:47:26;3.72;;;1.20;;
25990;SDS011;13779;-33.886;151.198;2022-12-07T15:50:11;3.03;;;1.00;;
25990;SDS011;13779;-33.886;151.198;2022-12-07T15:52:43;2.38;;;1.05;;
25990;SDS011;13779;-33.886;151.198;2022-12-07T15:55:19;3.97;;;1.10;;
25990;SDS011;13779;-33.886;151.198;2022-12-07T15:57:50;3.50;;;1.20;;
25990;SDS011;13779;-33.886;151.198;2022-12-07T16:00:20;3.00;;;0.90;;
25990;SDS011;13779;-33.886;151.198;2022-12-07T16:02:51;2.35;;;1.00;;
25990;SDS011;13779;-33.886;151.198;2022-12-07T16:05:22;3.13;;;0.90;;
25990;SDS011;13779;-33.886;151.198;2022-12-07T16:07:53;4.38;;;0.98;;
25990;SDS011;13779;-33.886;151.198;2022-12-07T16:10:24;1.73;;;0.93;;
25990;SDS011;13779;-33.886;151.198;2022-12-07T16:12:55;3.40;;;1.25;;
25990;SDS011;13779;-33.886;151.198;2022-12-07T16:15:25;4.07;;;1.00;;
25990;SDS011;13779;-33.886;151.198;2022-12-07T16:17:56;3.17;;;1.00;;
25990;SDS011;13779;-33.886;151.198;2022-12-07T16:20:26;5.77;;;1.10;;
25990;SDS011;13779;-33.886;151.198;2022-12-07T16:22:57;6.65;;;1.15;;
25990;SDS011;13779;-33.886;151.198;2022-12-07T16:25:28;5.55;;;1.20;;
25990;SDS011;13779;-33.886;151.198;2022-12-07T16:27:58;3.55;;;1.20;;
25990;SDS011;13779;-33.886;151.198;2022-12-07T16:30:29;3.83;;;1.50;;
25990;SDS011;13779;-33.886;151.198;2022-12-07T16:33:00;5.22;;;1.20;;
25990;SDS011;13779;-33.886;151.198;2022-12-07T16:35:30;3.63;;;1.37;;
25990;SDS011;13779;-33.886;151.198;2022-12-07T16:38:01;5.47;;;1.65;;
25990;SDS011;13779;-33.886;151.198;2022-12-07T16:40:31;3.90;;;1.60;;
25990;SDS011;13779;-33.886;151.198;2022-12-07T16:43:02;2.25;;;1.27;;
25990;SDS011;13779;-33.886;151.198;2022-12-07T16:45:33;4.18;;;1.42;;
25990;SDS011;13779;-33.886;151.198;2022-12-07T16:48:06;2.95;;;1.30;;
25990;SDS011;13779;-33.886;151.198;2022-12-07T16:50:38;1.98;;;1.25;;
25990;SDS011;13779;-33.886;151.198;2022-12-07T16:53:15;4.60;;;1.30;;
25990;SDS011;13779;-33.886;151.198;2022-12-07T16:55:46;3.17;;;1.63;;
25990;SDS011;13779;-33.886;151.198;2022-12-07T16:58:16;3.90;;;1.40;;
25990;SDS011;13779;-33.886;151.198;2022-12-07T17:00:47;3.03;;;1.30;;
25990;SDS011;13779;-33.886;151.198;2022-12-07T17:03:18;6.18;;;1.77;;
25990;SDS011;13779;-33.886;151.198;2022-12-07T17:05:48;5.85;;;1.33;;
25990;SDS011;13779;-33.886;151.198;2022-12-07T17:08:19;4.72;;;1.40;;
25990;SDS011;13779;-33.886;151.198;2022-12-07T17:10:49;5.30;;;1.33;;
25990;SDS011;13779;-33.886;151.198;2022-12-07T17:13:20;2.33;;;1.10;;
25990;SDS011;13779;-33.886;151.198;2022-12-07T17:16:09;2.38;;;1.25;;
25990;SDS011;13779;-33.886;151.198;2022-12-07T17:18:39;3.08;;;1.20;;
25990;SDS011;13779;-33.886;151.198;2022-12-07T17:21:10;3.40;;;1.20;;
25990;SDS011;13779;-33.886;151.198;2022-12-07T17:23:40;2.42;;;1.30;;